Aviation Digital Data Service (ADDS)

Output produced by METARs form (0533 UTC 25 October 2014)
found at http://www.aviationweather.gov/adds/metars/
 
KWWD 250515Z AUTO 33005KT 10SM CLR 14/05 A2991 RMK AO1